sensor_id;sensor_type;location;lat;lon;timestamp;temperature;humidity
33825;DHT22;20127;48.962;8.342;2023-04-27T00:02:06;9.00;99.90
33825;DHT22;20127;48.962;8.342;2023-04-27T00:05:08;8.90;99.90
33825;DHT22;20127;48.962;8.342;2023-04-27T00:08:10;8.90;99.90
33825;DHT22;20127;48.962;8.342;2023-04-27T00:11:12;8.90;99.90
33825;DHT22;20127;48.962;8.342;2023-04-27T00:14:15;8.90;99.90
33825;DHT22;20127;48.962;8.342;2023-04-27T00:17:17;8.90;99.90
33825;DHT22;20127;48.962;8.342;2023-04-27T00:20:18;8.80;99.90
33825;DHT22;20127;48.962;8.342;2023-04-27T00:23:20;8.80;99.90
33825;DHT22;20127;48.962;8.342;2023-04-27T00:26:22;8.70;99.90
33825;DHT22;20127;48.962;8.342;2023-04-27T00:29:25;8.60;99.90
33825;DHT22;20127;48.962;8.342;2023-04-27T00:32:27;8.50;99.90
33825;DHT22;20127;48.962;8.342;2023-04-27T00:35:28;8.40;99.90
33825;DHT22;20127;48.962;8.342;2023-04-27T00:38:30;8.20;99.90
33825;DHT22;20127;48.962;8.342;2023-04-27T00:41:32;8.10;99.90
33825;DHT22;20127;48.962;8.342;2023-04-27T00:44:38;8.00;99.90
33825;DHT22;20127;48.962;8.342;2023-04-27T00:47:40;8.00;99.90
33825;DHT22;20127;48.962;8.342;2023-04-27T00:50:42;7.90;99.90
33825;DHT22;20127;48.962;8.342;2023-04-27T00:53:44;7.90;99.90
33825;DHT22;20127;48.962;8.342;2023-04-27T00:56:47;7.90;99.90
33825;DHT22;20127;48.962;8.342;2023-04-27T00:59:50;7.90;99.90
33825;DHT22;20127;48.962;8.342;2023-04-27T01:02:53;7.90;99.90
33825;DHT22;20127;48.962;8.342;2023-04-27T01:05:55;7.80;99.90
33825;DHT22;20127;48.962;8.342;2023-04-27T01:08:59;7.70;99.90
33825;DHT22;20127;48.962;8.342;2023-04-27T01:12:00;7.70;99.90
33825;DHT22;20127;48.962;8.342;2023-04-27T01:15:05;7.80;99.90
33825;DHT22;20127;48.962;8.342;2023-04-27T01:18:06;7.70;99.90
33825;DHT22;20127;48.962;8.342;2023-04-27T01:21:09;7.70;99.90
33825;DHT22;20127;48.962;8.342;2023-04-27T01:24:12;7.70;99.90
33825;DHT22;20127;48.962;8.342;2023-04-27T01:27:13;7.70;99.90
33825;DHT22;20127;48.962;8.342;2023-04-27T01:30:15;7.70;99.90
33825;DHT22;20127;48.962;8.342;2023-04-27T01:33:17;7.80;99.90
33825;DHT22;20127;48.962;8.342;2023-04-27T01:36:19;7.80;99.90
33825;DHT22;20127;48.962;8.342;2023-04-27T01:39:22;7.80;99.90
33825;DHT22;20127;48.962;8.342;2023-04-27T01:42:23;7.70;99.90
33825;DHT22;20127;48.962;8.342;2023-04-27T01:45:25;7.70;99.90
33825;DHT22;20127;48.962;8.342;2023-04-27T01:48:27;7.70;99.90
33825;DHT22;20127;48.962;8.342;2023-04-27T01:51:28;7.70;99.90
33825;DHT22;20127;48.962;8.342;2023-04-27T01:54:31;7.70;99.90
33825;DHT22;20127;48.962;8.342;2023-04-27T01:57:33;7.80;99.90
33825;DHT22;20127;48.962;8.342;2023-04-27T02:00:35;7.80;99.90
33825;DHT22;20127;48.962;8.342;2023-04-27T02:03:36;7.70;99.90
33825;DHT22;20127;48.962;8.342;2023-04-27T02:06:38;7.70;99.90
33825;DHT22;20127;48.962;8.342;2023-04-27T02:09:42;7.70;99.90
33825;DHT22;20127;48.962;8.342;2023-04-27T02:12:44;7.70;99.90
33825;DHT22;20127;48.962;8.342;2023-04-27T02:15:46;7.70;99.90
33825;DHT22;20127;48.962;8.342;2023-04-27T02:18:47;7.80;99.90
33825;DHT22;20127;48.962;8.342;2023-04-27T02:21:49;7.80;99.90
33825;DHT22;20127;48.962;8.342;2023-04-27T02:24:53;7.90;99.90
33825;DHT22;20127;48.962;8.342;2023-04-27T02:27:55;7.90;99.90
33825;DHT22;20127;48.962;8.342;2023-04-27T02:30:56;7.90;99.90
33825;DHT22;20127;48.962;8.342;2023-04-27T02:33:58;7.90;99.90
33825;DHT22;20127;48.962;8.342;2023-04-27T02:37:00;7.90;99.90
33825;DHT22;20127;48.962;8.342;2023-04-27T02:40:04;7.90;99.90
33825;DHT22;20127;48.962;8.342;2023-04-27T02:43:06;7.90;99.90
33825;DHT22;20127;48.962;8.342;2023-04-27T02:46:08;7.90;99.90
33825;DHT22;20127;48.962;8.342;2023-04-27T02:49:10;7.90;99.90
33825;DHT22;20127;48.962;8.342;2023-04-27T02:52:12;8.00;99.90
33825;DHT22;20127;48.962;8.342;2023-04-27T02:55:15;8.00;99.90
33825;DHT22;20127;48.962;8.342;2023-04-27T02:58:17;8.00;99.90
33825;DHT22;20127;48.962;8.342;2023-04-27T03:01:19;8.00;99.90
33825;DHT22;20127;48.962;8.342;2023-04-27T03:04:20;8.00;99.90
33825;DHT22;20127;48.962;8.342;2023-04-27T03:07:22;8.00;99.90
33825;DHT22;20127;48.962;8.342;2023-04-27T03:10:25;8.00;99.90
33825;DHT22;20127;48.962;8.342;2023-04-27T03:13:27;8.00;99.90
33825;DHT22;20127;48.962;8.342;2023-04-27T03:16:30;8.00;99.90
33825;DHT22;20127;48.962;8.342;2023-04-27T03:19:32;8.00;99.90
33825;DHT22;20127;48.962;8.342;2023-04-27T03:22:34;8.00;99.90
33825;DHT22;20127;48.962;8.342;2023-04-27T03:25:37;8.00;99.90
33825;DHT22;20127;48.962;8.342;2023-04-27T03:28:40;8.00;99.90
33825;DHT22;20127;48.962;8.342;2023-04-27T03:31:41;8.00;99.90
33825;DHT22;20127;48.962;8.342;2023-04-27T03:34:43;8.10;99.90
33825;DHT22;20127;48.962;8.342;2023-04-27T03:37:45;8.10;99.90
33825;DHT22;20127;48.962;8.342;2023-04-27T03:40:48;8.10;99.90
33825;DHT22;20127;48.962;8.342;2023-04-27T03:43:50;8.10;99.90
33825;DHT22;20127;48.962;8.342;2023-04-27T03:46:52;8.10;99.90
33825;DHT22;20127;48.962;8.342;2023-04-27T03:49:54;8.10;99.90
33825;DHT22;20127;48.962;8.342;2023-04-27T03:52:56;8.00;99.90
33825;DHT22;20127;48.962;8.342;2023-04-27T03:56:01;8.00;99.90
33825;DHT22;20127;48.962;8.342;2023-04-27T03:59:03;8.00;99.90
33825;DHT22;20127;48.962;8.342;2023-04-27T04:02:04;8.00;99.90
33825;DHT22;20127;48.962;8.342;2023-04-27T04:05:08;8.00;99.90
33825;DHT22;20127;48.962;8.342;2023-04-27T04:08:10;8.00;99.90
33825;DHT22;20127;48.962;8.342;2023-04-27T04:11:13;8.00;99.90
33825;DHT22;20127;48.962;8.342;2023-04-27T04:14:14;7.90;99.90
33825;DHT22;20127;48.962;8.342;2023-04-27T04:17:16;7.90;99.90
33825;DHT22;20127;48.962;8.342;2023-04-27T04:20:18;7.90;99.90
33825;DHT22;20127;48.962;8.342;2023-04-27T04:23:19;7.90;99.90
33825;DHT22;20127;48.962;8.342;2023-04-27T04:26:22;7.90;99.90
33825;DHT22;20127;48.962;8.342;2023-04-27T04:29:24;7.90;99.90
33825;DHT22;20127;48.962;8.342;2023-04-27T04:32:26;7.90;99.90
33825;DHT22;20127;48.962;8.342;2023-04-27T04:35:29;7.90;99.90
33825;DHT22;20127;48.962;8.342;2023-04-27T04:38:32;7.90;99.90
33825;DHT22;20127;48.962;8.342;2023-04-27T04:41:35;7.90;99.90
33825;DHT22;20127;48.962;8.342;2023-04-27T04:44:37;7.90;99.90
33825;DHT22;20127;48.962;8.342;2023-04-27T04:47:39;8.00;99.90
33825;DHT22;20127;48.962;8.342;2023-04-27T04:50:41;8.00;99.90
33825;DHT22;20127;48.962;8.342;2023-04-27T04:53:42;8.00;99.90
33825;DHT22;20127;48.962;8.342;2023-04-27T04:56:45;8.00;99.90
33825;DHT22;20127;48.962;8.342;2023-04-27T04:59:47;8.10;99.90
33825;DHT22;20127;48.962;8.342;2023-04-27T05:02:49;8.10;99.90
33825;DHT22;20127;48.962;8.342;2023-04-27T05:05:51;8.20;99.90
33825;DHT22;20127;48.962;8.342;2023-04-27T05:08:52;8.30;99.90
33825;DHT22;20127;48.962;8.342;2023-04-27T05:11:55;8.40;99.90
33825;DHT22;20127;48.962;8.342;2023-04-27T05:14:57;8.60;99.90
33825;DHT22;20127;48.962;8.342;2023-04-27T05:17:59;8.60;99.90
33825;DHT22;20127;48.962;8.342;2023-04-27T05:21:00;8.80;99.90
33825;DHT22;20127;48.962;8.342;2023-04-27T05:24:02;8.90;99.90
33825;DHT22;20127;48.962;8.342;2023-04-27T05:27:05;9.00;99.90
33825;DHT22;20127;48.962;8.342;2023-04-27T05:30:08;9.10;99.90
33825;DHT22;20127;48.962;8.342;2023-04-27T05:33:10;9.30;99.90
33825;DHT22;20127;48.962;8.342;2023-04-27T05:36:12;9.40;99.90
33825;DHT22;20127;48.962;8.342;2023-04-27T05:39:14;9.50;99.90
33825;DHT22;20127;48.962;8.342;2023-04-27T05:42:17;9.60;99.90
33825;DHT22;20127;48.962;8.342;2023-04-27T05:45:19;9.70;99.90
33825;DHT22;20127;48.962;8.342;2023-04-27T05:48:21;9.80;99.90
33825;DHT22;20127;48.962;8.342;2023-04-27T05:51:23;10.00;99.90
33825;DHT22;20127;48.962;8.342;2023-04-27T05:54:24;10.10;99.90
33825;DHT22;20127;48.962;8.342;2023-04-27T05:57:28;10.30;99.90
33825;DHT22;20127;48.962;8.342;2023-04-27T06:00:30;10.40;99.90
33825;DHT22;20127;48.962;8.342;2023-04-27T06:03:32;10.60;99.90
33825;DHT22;20127;48.962;8.342;2023-04-27T06:06:34;10.70;99.90
33825;DHT22;20127;48.962;8.342;2023-04-27T06:09:36;10.80;99.90
33825;DHT22;20127;48.962;8.342;2023-04-27T06:12:39;10.90;99.90
33825;DHT22;20127;48.962;8.342;2023-04-27T06:15:41;11.00;99.90
33825;DHT22;20127;48.962;8.342;2023-04-27T06:18:43;11.10;99.90
33825;DHT22;20127;48.962;8.342;2023-04-27T06:21:44;11.10;99.90
33825;DHT22;20127;48.962;8.342;2023-04-27T06:24:46;11.20;99.90
33825;DHT22;20127;48.962;8.342;2023-04-27T06:27:49;11.20;99.90
33825;DHT22;20127;48.962;8.342;2023-04-27T06:30:52;11.20;99.90
33825;DHT22;20127;48.962;8.342;2023-04-27T06:33:54;11.30;99.90
33825;DHT22;20127;48.962;8.342;2023-04-27T06:36:55;11.50;99.90
33825;DHT22;20127;48.962;8.342;2023-04-27T06:39:57;11.70;99.90
33825;DHT22;20127;48.962;8.342;2023-04-27T06:43:00;12.00;99.90
33825;DHT22;20127;48.962;8.342;2023-04-27T06:46:14;12.30;99.90
33825;DHT22;20127;48.962;8.342;2023-04-27T06:49:26;12.40;99.90
33825;DHT22;20127;48.962;8.342;2023-04-27T06:52:30;12.60;99.90
33825;DHT22;20127;48.962;8.342;2023-04-27T06:55:32;12.70;99.90
33825;DHT22;20127;48.962;8.342;2023-04-27T06:58:35;12.80;99.90
33825;DHT22;20127;48.962;8.342;2023-04-27T07:01:37;12.90;99.90
33825;DHT22;20127;48.962;8.342;2023-04-27T07:04:38;13.00;99.90
33825;DHT22;20127;48.962;8.342;2023-04-27T07:07:41;13.20;99.90
33825;DHT22;20127;48.962;8.342;2023-04-27T07:10:42;13.40;99.90
33825;DHT22;20127;48.962;8.342;2023-04-27T07:13:45;13.50;99.50
33825;DHT22;20127;48.962;8.342;2023-04-27T07:16:47;13.70;99.10
33825;DHT22;20127;48.962;8.342;2023-04-27T07:19:49;13.90;98.80
33825;DHT22;20127;48.962;8.342;2023-04-27T07:22:50;14.20;98.30
33825;DHT22;20127;48.962;8.342;2023-04-27T07:25:52;14.40;97.70
33825;DHT22;20127;48.962;8.342;2023-04-27T07:28:55;14.80;97.30
33825;DHT22;20127;48.962;8.342;2023-04-27T07:31:57;15.00;96.90
33825;DHT22;20127;48.962;8.342;2023-04-27T07:34:59;15.40;96.20
33825;DHT22;20127;48.962;8.342;2023-04-27T07:38:01;15.60;95.30
33825;DHT22;20127;48.962;8.342;2023-04-27T07:41:03;16.10;95.10
33825;DHT22;20127;48.962;8.342;2023-04-27T07:44:08;16.90;94.40
33825;DHT22;20127;48.962;8.342;2023-04-27T07:47:10;18.10;93.00
33825;DHT22;20127;48.962;8.342;2023-04-27T07:50:12;18.70;91.60
33825;DHT22;20127;48.962;8.342;2023-04-27T07:53:15;19.10;90.20
33825;DHT22;20127;48.962;8.342;2023-04-27T07:56:17;19.80;87.80
33825;DHT22;20127;48.962;8.342;2023-04-27T07:59:20;20.50;84.70
33825;DHT22;20127;48.962;8.342;2023-04-27T08:02:22;21.10;81.10
33825;DHT22;20127;48.962;8.342;2023-04-27T08:05:24;21.70;78.40
33825;DHT22;20127;48.962;8.342;2023-04-27T08:08:25;22.10;75.10
33825;DHT22;20127;48.962;8.342;2023-04-27T08:11:27;22.60;73.00
33825;DHT22;20127;48.962;8.342;2023-04-27T08:14:30;23.20;70.30
33825;DHT22;20127;48.962;8.342;2023-04-27T08:17:34;23.50;67.30
33825;DHT22;20127;48.962;8.342;2023-04-27T08:20:36;23.70;66.00
33825;DHT22;20127;48.962;8.342;2023-04-27T08:23:38;23.70;64.20
33825;DHT22;20127;48.962;8.342;2023-04-27T08:26:40;24.00;62.90
33825;DHT22;20127;48.962;8.342;2023-04-27T08:29:46;24.30;61.10
33825;DHT22;20127;48.962;8.342;2023-04-27T08:32:48;24.50;59.00
33825;DHT22;20127;48.962;8.342;2023-04-27T08:35:52;24.50;58.30
33825;DHT22;20127;48.962;8.342;2023-04-27T08:38:54;24.80;57.40
33825;DHT22;20127;48.962;8.342;2023-04-27T08:41:55;24.90;56.40
33825;DHT22;20127;48.962;8.342;2023-04-27T08:44:58;25.10;55.10
33825;DHT22;20127;48.962;8.342;2023-04-27T08:48:00;25.10;54.00
33825;DHT22;20127;48.962;8.342;2023-04-27T08:51:02;25.30;53.10
33825;DHT22;20127;48.962;8.342;2023-04-27T08:54:09;25.40;52.50
33825;DHT22;20127;48.962;8.342;2023-04-27T08:57:12;25.30;52.00
33825;DHT22;20127;48.962;8.342;2023-04-27T09:00:16;25.10;51.70
33825;DHT22;20127;48.962;8.342;2023-04-27T09:03:21;25.00;51.40
33825;DHT22;20127;48.962;8.342;2023-04-27T09:06:30;25.10;51.10
33825;DHT22;20127;48.962;8.342;2023-04-27T09:09:32;25.20;50.90
33825;DHT22;20127;48.962;8.342;2023-04-27T09:12:33;25.50;50.40
33825;DHT22;20127;48.962;8.342;2023-04-27T09:15:42;25.50;49.80
33825;DHT22;20127;48.962;8.342;2023-04-27T09:18:44;25.70;49.20
33825;DHT22;20127;48.962;8.342;2023-04-27T09:21:46;26.00;49.30
33825;DHT22;20127;48.962;8.342;2023-04-27T09:24:51;26.20;48.40
33825;DHT22;20127;48.962;8.342;2023-04-27T09:27:53;26.10;48.00
33825;DHT22;20127;48.962;8.342;2023-04-27T09:30:58;26.00;47.80
33825;DHT22;20127;48.962;8.342;2023-04-27T09:34:00;25.70;47.70
33825;DHT22;20127;48.962;8.342;2023-04-27T09:37:02;25.60;48.10
33825;DHT22;20127;48.962;8.342;2023-04-27T09:40:04;25.70;48.20
33825;DHT22;20127;48.962;8.342;2023-04-27T09:43:06;25.60;47.80
33825;DHT22;20127;48.962;8.342;2023-04-27T09:46:10;25.50;47.60
33825;DHT22;20127;48.962;8.342;2023-04-27T09:49:13;25.50;48.00
33825;DHT22;20127;48.962;8.342;2023-04-27T09:52:16;25.70;47.60
33825;DHT22;20127;48.962;8.342;2023-04-27T09:55:23;25.70;47.00
33825;DHT22;20127;48.962;8.342;2023-04-27T09:58:45;25.60;46.70
33825;DHT22;20127;48.962;8.342;2023-04-27T10:01:56;25.40;46.00
33825;DHT22;20127;48.962;8.342;2023-04-27T10:05:33;25.10;46.00
33825;DHT22;20127;48.962;8.342;2023-04-27T10:08:38;25.00;46.20
33825;DHT22;20127;48.962;8.342;2023-04-27T10:11:40;24.80;46.60
33825;DHT22;20127;48.962;8.342;2023-04-27T10:14:54;24.60;46.60
33825;DHT22;20127;48.962;8.342;2023-04-27T10:18:03;24.50;47.00
33825;DHT22;20127;48.962;8.342;2023-04-27T10:21:11;24.80;46.70
33825;DHT22;20127;48.962;8.342;2023-04-27T10:24:13;25.10;45.70
33825;DHT22;20127;48.962;8.342;2023-04-27T10:27:16;25.20;45.10
33825;DHT22;20127;48.962;8.342;2023-04-27T10:30:20;25.20;45.30
33825;DHT22;20127;48.962;8.342;2023-04-27T10:33:24;25.50;45.00
33825;DHT22;20127;48.962;8.342;2023-04-27T10:36:33;25.40;44.50
33825;DHT22;20127;48.962;8.342;2023-04-27T10:39:38;25.30;44.50
33825;DHT22;20127;48.962;8.342;2023-04-27T10:42:40;25.30;44.70
33825;DHT22;20127;48.962;8.342;2023-04-27T10:45:43;25.20;44.60
33825;DHT22;20127;48.962;8.342;2023-04-27T10:48:46;25.20;44.30
33825;DHT22;20127;48.962;8.342;2023-04-27T10:51:50;25.00;44.40
33825;DHT22;20127;48.962;8.342;2023-04-27T10:54:51;25.10;44.30
33825;DHT22;20127;48.962;8.342;2023-04-27T10:57:54;25.00;44.10
33825;DHT22;20127;48.962;8.342;2023-04-27T11:00:56;25.00;44.20
33825;DHT22;20127;48.962;8.342;2023-04-27T11:04:00;25.10;44.30
33825;DHT22;20127;48.962;8.342;2023-04-27T11:07:03;25.10;44.50
33825;DHT22;20127;48.962;8.342;2023-04-27T11:10:07;25.20;44.20
33825;DHT22;20127;48.962;8.342;2023-04-27T11:13:10;25.20;43.80
33825;DHT22;20127;48.962;8.342;2023-04-27T11:16:12;25.30;43.60
33825;DHT22;20127;48.962;8.342;2023-04-27T11:19:15;25.20;44.00
33825;DHT22;20127;48.962;8.342;2023-04-27T11:22:17;25.30;44.00
33825;DHT22;20127;48.962;8.342;2023-04-27T11:25:26;25.60;44.00
33825;DHT22;20127;48.962;8.342;2023-04-27T11:28:28;25.70;43.40
33825;DHT22;20127;48.962;8.342;2023-04-27T11:31:38;25.60;43.50
33825;DHT22;20127;48.962;8.342;2023-04-27T11:34:48;25.40;43.00
33825;DHT22;20127;48.962;8.342;2023-04-27T11:37:56;25.60;43.90
33825;DHT22;20127;48.962;8.342;2023-04-27T11:41:00;25.90;43.80
33825;DHT22;20127;48.962;8.342;2023-04-27T11:44:06;26.30;43.20
33825;DHT22;20127;48.962;8.342;2023-04-27T11:47:08;26.50;42.70
33825;DHT22;20127;48.962;8.342;2023-04-27T11:50:17;26.60;42.40
33825;DHT22;20127;48.962;8.342;2023-04-27T11:53:28;26.70;42.30
33825;DHT22;20127;48.962;8.342;2023-04-27T11:56:34;26.90;41.90
33825;DHT22;20127;48.962;8.342;2023-04-27T11:59:36;26.80;41.70
33825;DHT22;20127;48.962;8.342;2023-04-27T12:02:38;26.60;41.90
33825;DHT22;20127;48.962;8.342;2023-04-27T12:05:48;26.60;41.80
33825;DHT22;20127;48.962;8.342;2023-04-27T12:08:50;26.40;41.10
33825;DHT22;20127;48.962;8.342;2023-04-27T12:11:52;26.20;41.90
33825;DHT22;20127;48.962;8.342;2023-04-27T12:14:54;26.40;42.20
33825;DHT22;20127;48.962;8.342;2023-04-27T12:17:56;26.60;41.90
33825;DHT22;20127;48.962;8.342;2023-04-27T12:20:59;26.60;41.80
33825;DHT22;20127;48.962;8.342;2023-04-27T12:24:00;26.50;41.50
33825;DHT22;20127;48.962;8.342;2023-04-27T12:27:02;26.50;41.30
33825;DHT22;20127;48.962;8.342;2023-04-27T12:30:05;26.60;41.90
33825;DHT22;20127;48.962;8.342;2023-04-27T12:33:07;26.80;41.70
33825;DHT22;20127;48.962;8.342;2023-04-27T12:36:11;27.10;41.50
33825;DHT22;20127;48.962;8.342;2023-04-27T12:39:15;27.30;41.10
33825;DHT22;20127;48.962;8.342;2023-04-27T12:42:17;27.40;40.80
33825;DHT22;20127;48.962;8.342;2023-04-27T12:45:23;27.50;40.30
33825;DHT22;20127;48.962;8.342;2023-04-27T12:48:25;27.30;40.50
33825;DHT22;20127;48.962;8.342;2023-04-27T12:51:28;27.30;40.60
33825;DHT22;20127;48.962;8.342;2023-04-27T12:54:29;27.30;40.80
33825;DHT22;20127;48.962;8.342;2023-04-27T12:57:31;27.20;40.80
33825;DHT22;20127;48.962;8.342;2023-04-27T13:00:33;27.30;40.80
33825;DHT22;20127;48.962;8.342;2023-04-27T13:03:35;27.20;40.80
33825;DHT22;20127;48.962;8.342;2023-04-27T13:06:38;27.00;40.50
33825;DHT22;20127;48.962;8.342;2023-04-27T13:09:39;26.50;40.40
33825;DHT22;20127;48.962;8.342;2023-04-27T13:12:41;26.10;41.00
33825;DHT22;20127;48.962;8.342;2023-04-27T13:15:43;26.10;41.20
33825;DHT22;20127;48.962;8.342;2023-04-27T13:18:45;26.20;41.20
33825;DHT22;20127;48.962;8.342;2023-04-27T13:21:50;26.00;41.10
33825;DHT22;20127;48.962;8.342;2023-04-27T13:24:53;25.90;41.40
33825;DHT22;20127;48.962;8.342;2023-04-27T13:27:55;25.80;41.60
33825;DHT22;20127;48.962;8.342;2023-04-27T13:30:57;25.70;41.40
33825;DHT22;20127;48.962;8.342;2023-04-27T13:33:59;25.20;41.20
33825;DHT22;20127;48.962;8.342;2023-04-27T13:37:04;25.00;42.00
33825;DHT22;20127;48.962;8.342;2023-04-27T13:40:08;25.10;42.40
33825;DHT22;20127;48.962;8.342;2023-04-27T13:43:10;25.40;42.20
33825;DHT22;20127;48.962;8.342;2023-04-27T13:46:12;25.60;41.90
33825;DHT22;20127;48.962;8.342;2023-04-27T13:49:14;25.80;42.00
33825;DHT22;20127;48.962;8.342;2023-04-27T13:52:17;25.80;42.00
33825;DHT22;20127;48.962;8.342;2023-04-27T13:55:19;25.80;41.70
33825;DHT22;20127;48.962;8.342;2023-04-27T13:58:21;26.10;41.90
33825;DHT22;20127;48.962;8.342;2023-04-27T14:01:23;26.30;41.80
33825;DHT22;20127;48.962;8.342;2023-04-27T14:04:25;26.40;41.30
33825;DHT22;20127;48.962;8.342;2023-04-27T14:07:28;26.50;41.00
33825;DHT22;20127;48.962;8.342;2023-04-27T14:10:35;26.40;40.80
33825;DHT22;20127;48.962;8.342;2023-04-27T14:13:36;26.30;41.00
33825;DHT22;20127;48.962;8.342;2023-04-27T14:16:38;26.50;41.00
33825;DHT22;20127;48.962;8.342;2023-04-27T14:19:40;26.70;40.80
33825;DHT22;20127;48.962;8.342;2023-04-27T14:22:43;26.80;40.40
33825;DHT22;20127;48.962;8.342;2023-04-27T14:25:45;26.90;40.20
33825;DHT22;20127;48.962;8.342;2023-04-27T14:28:47;26.90;40.10
33825;DHT22;20127;48.962;8.342;2023-04-27T14:31:49;27.00;40.10
33825;DHT22;20127;48.962;8.342;2023-04-27T14:34:50;27.10;40.10
33825;DHT22;20127;48.962;8.342;2023-04-27T14:37:53;26.80;39.60
33825;DHT22;20127;48.962;8.342;2023-04-27T14:40:56;26.70;40.20
33825;DHT22;20127;48.962;8.342;2023-04-27T14:43:58;26.70;39.90
33825;DHT22;20127;48.962;8.342;2023-04-27T14:47:00;26.50;39.80
33825;DHT22;20127;48.962;8.342;2023-04-27T14:50:02;26.40;40.10
33825;DHT22;20127;48.962;8.342;2023-04-27T14:53:05;26.20;40.10
33825;DHT22;20127;48.962;8.342;2023-04-27T14:56:06;26.00;40.50
33825;DHT22;20127;48.962;8.342;2023-04-27T14:59:08;26.00;40.40
33825;DHT22;20127;48.962;8.342;2023-04-27T15:02:10;26.00;40.80
33825;DHT22;20127;48.962;8.342;2023-04-27T15:05:12;26.20;40.60
33825;DHT22;20127;48.962;8.342;2023-04-27T15:08:15;26.30;40.40
33825;DHT22;20127;48.962;8.342;2023-04-27T15:11:16;25.90;40.70
33825;DHT22;20127;48.962;8.342;2023-04-27T15:14:18;25.70;41.30
33825;DHT22;20127;48.962;8.342;2023-04-27T15:17:20;25.60;41.60
33825;DHT22;20127;48.962;8.342;2023-04-27T15:20:21;25.30;41.50
33825;DHT22;20127;48.962;8.342;2023-04-27T15:23:26;24.80;41.90
33825;DHT22;20127;48.962;8.342;2023-04-27T15:26:27;24.60;42.40
33825;DHT22;20127;48.962;8.342;2023-04-27T15:29:29;24.70;42.30
33825;DHT22;20127;48.962;8.342;2023-04-27T15:32:31;25.00;42.30
33825;DHT22;20127;48.962;8.342;2023-04-27T15:35:33;25.20;42.10
33825;DHT22;20127;48.962;8.342;2023-04-27T15:38:38;25.50;42.00
33825;DHT22;20127;48.962;8.342;2023-04-27T15:41:39;25.50;41.80
33825;DHT22;20127;48.962;8.342;2023-04-27T15:44:41;25.50;42.00
33825;DHT22;20127;48.962;8.342;2023-04-27T15:47:43;25.70;42.30
33825;DHT22;20127;48.962;8.342;2023-04-27T15:50:45;25.80;42.20
33825;DHT22;20127;48.962;8.342;2023-04-27T15:53:48;25.60;42.10
33825;DHT22;20127;48.962;8.342;2023-04-27T15:56:50;25.40;41.70
33825;DHT22;20127;48.962;8.342;2023-04-27T15:59:52;24.70;42.00
33825;DHT22;20127;48.962;8.342;2023-04-27T16:02:53;24.10;42.40
33825;DHT22;20127;48.962;8.342;2023-04-27T16:05:55;23.50;42.80
33825;DHT22;20127;48.962;8.342;2023-04-27T16:08:59;22.80;43.70
33825;DHT22;20127;48.962;8.342;2023-04-27T16:12:00;22.50;44.30
33825;DHT22;20127;48.962;8.342;2023-04-27T16:15:04;22.30;44.60
33825;DHT22;20127;48.962;8.342;2023-04-27T16:18:05;22.10;45.00
33825;DHT22;20127;48.962;8.342;2023-04-27T16:21:07;22.00;45.00
33825;DHT22;20127;48.962;8.342;2023-04-27T16:24:10;21.70;45.10
33825;DHT22;20127;48.962;8.342;2023-04-27T16:27:12;21.40;45.80
33825;DHT22;20127;48.962;8.342;2023-04-27T16:30:14;21.10;46.20
33825;DHT22;20127;48.962;8.342;2023-04-27T16:33:15;20.90;47.60
33825;DHT22;20127;48.962;8.342;2023-04-27T16:36:18;20.90;48.30
33825;DHT22;20127;48.962;8.342;2023-04-27T16:39:21;20.90;48.40
33825;DHT22;20127;48.962;8.342;2023-04-27T16:42:23;20.80;48.50
33825;DHT22;20127;48.962;8.342;2023-04-27T16:45:25;20.80;48.60
33825;DHT22;20127;48.962;8.342;2023-04-27T16:48:26;20.70;49.00
33825;DHT22;20127;48.962;8.342;2023-04-27T16:51:28;20.70;49.10
33825;DHT22;20127;48.962;8.342;2023-04-27T16:54:32;20.50;49.40
33825;DHT22;20127;48.962;8.342;2023-04-27T16:57:34;20.40;50.00
33825;DHT22;20127;48.962;8.342;2023-04-27T17:00:36;20.30;50.30
33825;DHT22;20127;48.962;8.342;2023-04-27T17:03:38;20.20;50.70
33825;DHT22;20127;48.962;8.342;2023-04-27T17:06:41;20.10;51.10
33825;DHT22;20127;48.962;8.342;2023-04-27T17:09:46;20.00;51.70
33825;DHT22;20127;48.962;8.342;2023-04-27T17:12:47;19.90;52.00
33825;DHT22;20127;48.962;8.342;2023-04-27T17:15:49;19.90;51.80
33825;DHT22;20127;48.962;8.342;2023-04-27T17:18:51;19.80;51.90
33825;DHT22;20127;48.962;8.342;2023-04-27T17:21:53;19.70;52.10
33825;DHT22;20127;48.962;8.342;2023-04-27T17:24:56;19.60;52.30
33825;DHT22;20127;48.962;8.342;2023-04-27T17:27:58;19.50;52.70
33825;DHT22;20127;48.962;8.342;2023-04-27T17:31:00;19.40;53.20
33825;DHT22;20127;48.962;8.342;2023-04-27T17:34:01;19.30;54.00
33825;DHT22;20127;48.962;8.342;2023-04-27T17:37:03;19.20;55.30
33825;DHT22;20127;48.962;8.342;2023-04-27T17:40:07;19.00;56.70
33825;DHT22;20127;48.962;8.342;2023-04-27T17:43:09;18.80;58.40
33825;DHT22;20127;48.962;8.342;2023-04-27T17:46:11;18.70;59.10
33825;DHT22;20127;48.962;8.342;2023-04-27T17:49:13;18.50;59.70
33825;DHT22;20127;48.962;8.342;2023-04-27T17:52:15;18.40;60.40
33825;DHT22;20127;48.962;8.342;2023-04-27T17:55:20;18.30;61.00
33825;DHT22;20127;48.962;8.342;2023-04-27T17:58:21;18.20;61.60
33825;DHT22;20127;48.962;8.342;2023-04-27T18:01:23;18.10;62.10
33825;DHT22;20127;48.962;8.342;2023-04-27T18:04:31;17.90;62.80
33825;DHT22;20127;48.962;8.342;2023-04-27T18:07:33;17.80;64.30
33825;DHT22;20127;48.962;8.342;2023-04-27T18:10:37;17.60;65.20
33825;DHT22;20127;48.962;8.342;2023-04-27T18:13:38;17.30;66.40
33825;DHT22;20127;48.962;8.342;2023-04-27T18:16:40;17.20;67.30
33825;DHT22;20127;48.962;8.342;2023-04-27T18:19:42;17.00;68.10
33825;DHT22;20127;48.962;8.342;2023-04-27T18:22:43;16.80;68.80
33825;DHT22;20127;48.962;8.342;2023-04-27T18:25:47;16.60;69.50
33825;DHT22;20127;48.962;8.342;2023-04-27T18:28:49;16.50;70.30
33825;DHT22;20127;48.962;8.342;2023-04-27T18:31:51;16.40;70.80
33825;DHT22;20127;48.962;8.342;2023-04-27T18:34:54;16.20;71.30
33825;DHT22;20127;48.962;8.342;2023-04-27T18:37:56;16.10;72.00
33825;DHT22;20127;48.962;8.342;2023-04-27T18:40:59;16.00;72.80
33825;DHT22;20127;48.962;8.342;2023-04-27T18:44:04;15.90;73.70
33825;DHT22;20127;48.962;8.342;2023-04-27T18:47:06;15.80;74.30
33825;DHT22;20127;48.962;8.342;2023-04-27T18:50:09;15.60;74.40
33825;DHT22;20127;48.962;8.342;2023-04-27T18:53:12;15.50;75.00
33825;DHT22;20127;48.962;8.342;2023-04-27T18:56:15;15.40;75.60
33825;DHT22;20127;48.962;8.342;2023-04-27T18:59:17;15.30;76.30
33825;DHT22;20127;48.962;8.342;2023-04-27T19:02:19;15.30;76.60
33825;DHT22;20127;48.962;8.342;2023-04-27T19:05:20;15.20;76.90
33825;DHT22;20127;48.962;8.342;2023-04-27T19:08:22;15.10;77.20
33825;DHT22;20127;48.962;8.342;2023-04-27T19:11:25;15.00;77.60
33825;DHT22;20127;48.962;8.342;2023-04-27T19:14:28;14.90;78.30
33825;DHT22;20127;48.962;8.342;2023-04-27T19:17:30;14.80;79.10
33825;DHT22;20127;48.962;8.342;2023-04-27T19:20:31;14.70;79.90